Time;durP1;ratioP1;P1;durP2;ratioP2;P2;SDS_P1;SDS_P2;PMS_P1;PMS_P2;Temp;Humidity;BMP_temperature;BMP_pressure;BME280_temperature;BME280_humidity;BME280_pressure;Samples;Min_cycle;Max_cycle;Signal;HPM_P1;HPM_P2
2023/05/13 00:00:11;;;;;;;;;8.00;8.00;;;;;16.64;65.38;101278.94;2072582;28;45860;-64
2023/05/13 00:01:12;;;;;;;;;10.00;10.00;;;;;16.65;65.04;101279.81;2079887;28;48277;-66
2023/05/13 00:02:12;;;;;;;;;11.67;10.00;;;;;16.66;65.30;101278.88;2062980;28;46041;-65
2023/05/13 00:03:13;;;;;;;;;7.67;7.67;;;;;16.64;65.43;101278.03;2059037;28;46501;-64
2023/05/13 00:04:13;;;;;;;;;10.67;10.67;;;;;16.64;65.64;101280.69;2063323;28;46560;-65
2023/05/13 00:05:13;;;;;;;;;8.50;8.50;;;;;16.65;65.46;101280.66;2071001;28;46595;-64
2023/05/13 00:06:14;;;;;;;;;9.00;9.00;;;;;16.64;65.59;101278.03;2072531;28;46369;-64
2023/05/13 00:07:14;;;;;;;;;9.75;9.75;;;;;16.63;65.09;101282.50;2072466;28;46506;-64
2023/05/13 00:08:15;;;;;;;;;10.33;10.33;;;;;16.62;65.00;101280.75;2072312;28;46529;-64
2023/05/13 00:09:15;;;;;;;;;14.40;12.00;;;;;16.62;65.15;101279.88;2072573;28;46489;-65
2023/05/13 00:10:16;;;;;;;;;8.00;7.50;;;;;16.61;65.25;101279.00;2072507;28;46551;-63
2023/05/13 00:11:16;;;;;;;;;9.67;9.33;;;;;16.60;65.62;101282.63;2072577;28;46363;-64
2023/05/13 00:12:16;;;;;;;;;10.67;9.33;;;;;16.60;65.36;101273.72;2072685;28;45552;-63
2023/05/13 00:13:17;;;;;;;;;8.33;6.00;;;;;16.60;65.63;101279.06;2071953;28;46778;-64
2023/05/13 00:14:17;;;;;;;;;11.00;9.33;;;;;16.59;65.60;101277.34;2070553;28;46368;-65
2023/05/13 00:15:17;;;;;;;;;11.00;9.00;;;;;16.58;65.74;101280.94;2080019;28;46384;-64
2023/05/13 00:16:18;;;;;;;;;8.67;8.33;;;;;16.58;65.85;101272.91;2072468;28;46489;-64
2023/05/13 00:17:18;;;;;;;;;10.00;9.00;;;;;16.59;65.71;101280.00;2072237;28;46201;-63
2023/05/13 00:18:18;;;;;;;;;10.00;10.00;;;;;16.59;65.71;101274.66;2072095;28;45740;-64
2023/05/13 00:19:19;;;;;;;;;14.00;11.00;;;;;16.58;65.81;101270.22;2071497;28;47219;-64
2023/05/13 00:20:19;;;;;;;;;8.00;7.00;;;;;16.58;65.91;101275.59;2071687;28;46335;-64
2023/05/13 00:21:20;;;;;;;;;10.50;9.50;;;;;16.56;65.79;101272.09;2072336;28;46857;-64
2023/05/13 00:22:20;;;;;;;;;15.50;12.75;;;;;16.56;66.05;101272.09;2072338;28;46578;-65
2023/05/13 00:23:21;;;;;;;;;11.25;10.50;;;;;16.54;65.61;101274.84;2079899;28;45516;-64
2023/05/13 00:24:21;;;;;;;;;8.75;8.75;;;;;16.53;65.80;101278.44;2071679;28;46353;-64
2023/05/13 00:25:22;;;;;;;;;10.00;9.25;;;;;16.54;65.77;101282.88;2071312;28;46088;-64
2023/05/13 00:26:22;;;;;;;;;9.75;9.75;;;;;16.53;65.64;101285.63;2072087;28;46153;-64
2023/05/13 00:27:22;;;;;;;;;9.75;9.75;;;;;16.52;65.96;101287.44;2072091;28;46269;-63
2023/05/13 00:28:23;;;;;;;;;10.75;10.75;;;;;16.50;66.18;101286.56;2072184;28;45675;-64
2023/05/13 00:29:23;;;;;;;;;11.00;11.00;;;;;16.47;65.89;101287.56;2079923;28;46227;-64
2023/05/13 00:30:24;;;;;;;;;10.75;10.75;;;;;16.47;66.27;101286.69;2079752;28;46528;-64
2023/05/13 00:31:24;;;;;;;;;10.00;10.00;;;;;16.45;66.29;101281.41;2071958;28;46544;-64
2023/05/13 00:32:24;;;;;;;;;9.00;9.00;;;;;16.44;66.19;101287.69;2072305;28;46874;-64
2023/05/13 00:33:25;;;;;;;;;7.33;7.33;;;;;16.43;66.25;101283.28;2072763;28;46921;-64
2023/05/13 00:34:25;;;;;;;;;11.50;10.00;;;;;16.44;66.30;101286.81;2072051;28;46376;-63
2023/05/13 00:35:25;;;;;;;;;9.67;8.67;;;;;16.44;65.96;101281.47;2071710;28;46496;-63
2023/05/13 00:36:26;;;;;;;;;7.33;6.33;;;;;16.43;66.12;101285.94;2072257;28;46267;-64
2023/05/13 00:37:26;;;;;;;;;9.00;9.00;;;;;16.41;66.50;101281.59;2071948;28;46501;-64
2023/05/13 00:38:27;;;;;;;;;11.00;10.00;;;;;16.39;66.18;101287.00;2072599;28;45744;-63
2023/05/13 00:39:27;;;;;;;;;9.75;9.75;;;;;16.37;66.27;101287.97;2071460;28;46283;-65
2023/05/13 00:40:28;;;;;;;;;10.33;10.00;;;;;16.37;66.68;101279.94;2072136;28;45117;-63
2023/05/13 00:41:28;;;;;;;;;11.67;9.00;;;;;16.36;66.51;101281.72;2071734;28;46577;-64
2023/05/13 00:42:29;;;;;;;;;8.67;8.00;;;;;16.36;66.85;101288.91;2072652;28;45645;-64
2023/05/13 00:43:29;;;;;;;;;9.33;9.33;;;;;16.36;66.70;101287.09;2071828;28;46597;-64
2023/05/13 00:44:30;;;;;;;;;10.67;10.00;;;;;16.35;66.73;101292.50;2071876;28;46358;-63
2023/05/13 00:45:30;;;;;;;;;10.50;10.50;;;;;16.34;66.95;101288.94;2055271;28;46873;-64
2023/05/13 00:46:34;;;;;;;;;10.00;9.33;;;;;16.33;66.80;101289.00;2063464;28;46676;-66
2023/05/13 00:47:34;;;;;;;;;8.50;8.50;;;;;16.32;66.50;101289.94;2072214;28;46638;-64
2023/05/13 00:48:35;;;;;;;;;9.00;8.33;;;;;16.30;66.95;101289.13;2072216;28;46711;-64
2023/05/13 00:49:35;;;;;;;;;7.33;7.33;;;;;16.29;66.58;101288.25;2071495;28;46811;-64
2023/05/13 00:50:36;;;;;;;;;9.67;9.67;;;;;16.29;66.91;101287.38;2072103;28;46188;-66
2023/05/13 00:51:36;;;;;;;;;14.75;11.75;;;;;16.29;66.96;101288.25;2072023;28;46486;-65
2023/05/13 00:52:38;;;;;;;;;9.00;9.00;;;;;16.26;66.87;101291.06;2072436;28;45451;-65
2023/05/13 00:53:39;;;;;;;;;8.75;6.75;;;;;16.26;66.78;101287.47;2071744;28;45701;-64
2023/05/13 00:54:39;;;;;;;;;11.50;11.50;;;;;16.23;67.14;101291.13;2072418;28;46275;-65
2023/05/13 00:55:42;;;;;;;;;11.25;10.00;;;;;16.22;66.91;101297.44;2071960;28;46492;-64
2023/05/13 00:56:42;;;;;;;;;9.00;8.50;;;;;16.20;67.38;101288.59;2072286;28;47102;-64
2023/05/13 00:57:42;;;;;;;;;11.00;11.00;;;;;16.19;67.45;101284.16;2071989;28;46262;-65
2023/05/13 00:58:42;;;;;;;;;9.00;9.00;;;;;16.19;67.36;101287.72;2072396;28;45963;-64
2023/05/13 00:59:43;;;;;;;;;11.33;10.00;;;;;16.18;67.21;101290.44;2072453;28;46604;-66
2023/05/13 01:01:11;;;;;;;;;10.00;10.00;;;;;16.16;67.59;101286.94;2072633;28;46590;-66
2023/05/13 01:02:24;;;;;;;;;11.00;11.00;;;;;16.14;67.29;101287.00;2072160;28;46753;-65
2023/05/13 01:03:52;;;;;;;;;13.00;11.00;;;;;16.13;67.79;101292.38;2072680;28;46592;-65
2023/05/13 01:05:30;;;;;;;;;12.50;10.25;;;;;16.12;67.62;101302.22;2072775;28;46740;-65
2023/05/13 01:06:55;;;;;;;;;12.20;11.00;;;;;16.10;67.70;101285.34;2072682;28;46961;-65
2023/05/13 01:08:37;;;;;;;;;11.60;10.60;;;;;16.10;67.94;101282.66;2072105;28;46416;-65
2023/05/13 01:09:56;;;;;;;;;13.00;11.60;;;;;16.08;67.75;101289.00;2072063;28;46481;-65
2023/05/13 01:11:10;;;;;;;;;10.25;10.00;;;;;16.07;67.66;101295.31;2069972;28;46903;-66
2023/05/13 01:12:18;;;;;;;;;12.00;10.00;;;;;16.05;67.78;101297.16;2072062;28;47197;-65
2023/05/13 01:13:26;;;;;;;;;8.75;8.75;;;;;16.04;67.74;101296.28;2071620;28;45802;-64
2023/05/13 01:14:35;;;;;;;;;12.00;12.00;;;;;16.03;68.37;101294.53;2071405;28;46252;-64
2023/05/13 01:16:09;;;;;;;;;11.75;10.75;;;;;16.02;68.41;101292.81;2071516;28;46455;-64
2023/05/13 01:17:26;;;;;;;;;12.50;9.75;;;;;16.01;67.94;101292.84;2070938;28;46832;-63
2023/05/13 01:18:42;;;;;;;;;11.40;9.60;;;;;16.00;68.23;101291.06;2071454;28;46173;-64
2023/05/13 01:19:48;;;;;;;;;12.80;11.80;;;;;15.98;68.58;101293.81;2071881;28;46502;-63
2023/05/13 01:20:48;;;;;;;;;13.00;13.00;;;;;15.98;68.03;101287.59;2071726;28;46819;-64
2023/05/13 01:21:53;;;;;;;;;33.75;28.25;;;;;15.96;68.30;101293.00;2072310;28;46316;-65
2023/05/13 01:22:55;;;;;;;;;22.20;21.60;;;;;15.96;68.18;101287.66;2071676;28;45876;-65
2023/05/13 01:23:55;;;;;;;;;13.20;13.20;;;;;15.96;68.45;101289.44;2072174;28;46233;-65
2023/05/13 01:24:56;;;;;;;;;13.00;11.50;;;;;15.94;68.39;101286.81;2071482;28;46555;-64
2023/05/13 01:25:56;;;;;;;;;11.00;11.00;;;;;15.96;68.42;101289.44;2071083;28;46578;-65
2023/05/13 01:26:57;;;;;;;;;10.00;9.50;;;;;15.94;68.22;101286.81;2070582;28;46595;-66
2023/05/13 01:27:58;;;;;;;;;10.00;10.00;;;;;15.94;68.62;101284.16;2067543;28;46202;-65
2023/05/13 01:28:58;;;;;;;;;9.20;9.20;;;;;15.93;68.33;101287.75;2067298;28;46851;-63
2023/05/13 01:29:59;;;;;;;;;12.25;11.25;;;;;15.93;68.84;101289.56;2072036;28;46580;-63
2023/05/13 01:30:59;;;;;;;;;14.50;14.00;;;;;15.91;68.78;101278.91;2072064;28;46421;-64
2023/05/13 01:32:01;;;;;;;;;9.67;9.67;;;;;15.90;69.04;101290.56;2070967;28;46762;-63
2023/05/13 01:33:02;;;;;;;;;10.25;10.25;;;;;15.90;68.75;101293.22;2071340;28;46348;-63
2023/05/13 01:34:04;;;;;;;;;12.67;12.67;;;;;15.89;68.54;101289.69;2072123;28;46675;-64
2023/05/13 01:35:06;;;;;;;;;13.80;11.80;;;;;15.89;68.48;101296.84;2079214;28;46608;-65
2023/05/13 01:36:08;;;;;;;;;10.60;10.20;;;;;15.88;68.65;101287.06;2079284;28;46551;-63
2023/05/13 01:37:08;;;;;;;;;12.80;11.20;;;;;15.87;68.73;101291.50;2068422;28;46494;-65
2023/05/13 01:38:09;;;;;;;;;10.00;9.67;;;;;15.86;68.60;101295.09;2071863;28;46669;-64
2023/05/13 01:39:11;;;;;;;;;12.00;12.00;;;;;15.85;68.94;101292.50;2071742;28;46502;-65
2023/05/13 01:40:12;;;;;;;;;11.50;10.75;;;;;15.84;68.85;101286.25;2071820;28;46823;-64
2023/05/13 01:41:12;;;;;;;;;12.80;12.60;;;;;15.84;69.05;101290.75;2071926;28;46856;-65
2023/05/13 01:42:13;;;;;;;;;10.75;10.00;;;;;15.84;69.19;101294.28;2071229;28;46486;-64
2023/05/13 01:43:13;;;;;;;;;12.50;12.50;;;;;15.83;69.16;101292.53;2070008;28;46793;-64
2023/05/13 01:44:14;;;;;;;;;10.50;10.50;;;;;15.83;69.18;101295.22;2069435;28;46436;-64
2023/05/13 01:45:14;;;;;;;;;13.50;12.00;;;;;15.84;68.87;101301.44;2071607;28;45531;-65
2023/05/13 01:46:15;;;;;;;;;11.25;11.25;;;;;15.84;69.09;101298.78;2072057;28;46434;-65
2023/05/13 01:47:15;;;;;;;;;11.75;11.75;;;;;15.83;69.11;101297.91;2071705;28;45030;-64
2023/05/13 01:48:17;;;;;;;;;11.25;11.25;;;;;15.82;68.95;101297.94;2071200;28;46558;-64
2023/05/13 01:49:18;;;;;;;;;11.25;11.25;;;;;15.82;69.37;101303.31;2071326;28;46884;-65
2023/05/13 01:50:18;;;;;;;;;11.00;10.50;;;;;15.81;68.98;101294.41;2071405;28;46249;-65
2023/05/13 01:51:18;;;;;;;;;10.00;10.00;;;;;15.81;69.39;101306.91;2071533;28;46230;-63
2023/05/13 01:52:18;;;;;;;;;10.67;10.33;;;;;15.79;69.41;101298.94;2070502;28;45813;-63
2023/05/13 01:53:19;;;;;;;;;12.00;10.00;;;;;15.78;69.38;101305.22;2071485;28;46252;-65
2023/05/13 01:54:19;;;;;;;;;13.00;13.00;;;;;15.78;69.70;101301.66;2071618;28;46831;-64
2023/05/13 01:55:20;;;;;;;;;14.67;13.00;;;;;15.76;69.53;101298.19;2071362;28;46211;-64
2023/05/13 01:56:21;;;;;;;;;12.00;11.33;;;;;15.76;69.39;101303.53;2071865;28;45120;-64
2023/05/13 01:57:21;;;;;;;;;11.40;11.40;;;;;15.74;69.34;101300.88;2063748;28;46563;-63
2023/05/13 01:58:21;;;;;;;;;15.33;13.67;;;;;15.75;69.13;101310.69;2066905;28;45950;-63
2023/05/13 01:59:22;;;;;;;;;17.50;16.50;;;;;15.74;69.25;101295.53;2071781;28;45911;-67
2023/05/13 02:00:22;;;;;;;;;16.50;15.25;;;;;15.74;69.15;101295.53;2071714;28;47087;-65
2023/05/13 02:01:23;;;;;;;;;24.00;21.00;;;;;15.73;69.33;101300.94;2071318;28;46942;-64
2023/05/13 02:02:23;;;;;;;;;28.25;27.25;;;;;15.73;69.74;101306.28;2078421;28;46857;-64
2023/05/13 02:03:23;;;;;;;;;39.25;32.75;;;;;15.74;69.89;101310.72;2074224;28;46316;-64
2023/05/13 02:04:24;;;;;;;;;34.50;31.25;;;;;15.75;69.54;101304.44;2070865;28;46562;-62
2023/05/13 02:05:25;;;;;;;;;26.20;25.80;;;;;15.74;69.95;101306.22;2062412;28;46509;-64
2023/05/13 02:06:26;;;;;;;;;18.50;16.75;;;;;15.75;69.91;101307.09;2062583;28;46785;-64
2023/05/13 02:07:26;;;;;;;;;15.50;15.25;;;;;15.74;69.80;101303.56;2070268;28;46534;-63
2023/05/13 02:08:27;;;;;;;;;15.00;14.67;;;;;15.74;69.71;101298.19;2071089;28;46670;-63
2023/05/13 02:09:27;;;;;;;;;15.00;14.00;;;;;15.74;69.71;101308.03;2070878;28;45738;-63
2023/05/13 02:10:28;;;;;;;;;11.00;11.00;;;;;15.73;69.91;101307.16;2070682;28;45515;-63
2023/05/13 02:11:28;;;;;;;;;17.00;13.33;;;;;15.73;69.46;101306.28;2070949;28;45090;-65
2023/05/13 02:12:28;;;;;;;;;12.00;12.00;;;;;15.73;69.71;101307.16;2071360;28;46484;-63
2023/05/13 02:13:28;;;;;;;;;16.25;13.75;;;;;15.72;69.90;101304.53;2070905;28;45529;-64
2023/05/13 02:14:29;;;;;;;;;14.67;14.67;;;;;15.72;69.52;101307.22;2071842;28;46736;-64
2023/05/13 02:15:29;;;;;;;;;14.67;14.33;;;;;15.72;69.42;101307.22;2071218;28;45136;-65
2023/05/13 02:16:32;;;;;;;;;11.75;11.75;;;;;15.71;70.02;101311.69;2062620;28;46499;-64
2023/05/13 02:17:32;;;;;;;;;16.80;15.80;;;;;15.71;70.04;101303.66;2063398;28;46548;-64
2023/05/13 02:18:33;;;;;;;;;16.25;14.75;;;;;15.70;69.71;101301.91;2071287;28;46294;-65
2023/05/13 02:19:33;;;;;;;;;13.00;11.75;;;;;15.71;70.10;101301.00;2071014;28;46299;-65
2023/05/13 02:20:34;;;;;;;;;13.25;13.25;;;;;15.73;69.76;101306.28;2071156;28;45913;-64
2023/05/13 02:21:34;;;;;;;;;13.25;13.00;;;;;15.73;70.02;101300.94;2070595;28;46814;-64
2023/05/13 02:22:34;;;;;;;;;15.75;13.25;;;;;15.73;69.93;101306.28;2071148;28;45644;-63
2023/05/13 02:23:35;;;;;;;;;14.00;13.50;;;;;15.73;69.99;101301.81;2070751;28;46413;-64
2023/05/13 02:24:38;;;;;;;;;13.00;13.00;;;;;15.74;69.94;101308.91;2062753;28;46863;-64
2023/05/13 02:25:39;;;;;;;;;14.20;11.60;;;;;15.74;69.82;101310.72;2063045;28;46948;-63
2023/05/13 02:26:40;;;;;;;;;11.00;9.00;;;;;15.73;69.46;101304.47;2071094;28;45723;-64
2023/05/13 02:27:40;;;;;;;;;14.67;14.00;;;;;15.74;69.69;101308.91;2062590;28;45577;-64
2023/05/13 02:28:41;;;;;;;;;15.00;15.00;;;;;15.73;70.13;101299.13;2058442;28;46749;-65
2023/05/13 02:29:41;;;;;;;;;10.33;10.33;;;;;15.73;70.01;101304.47;2069906;28;45592;-63
2023/05/13 02:30:42;;;;;;;;;2.00;2.00;;;;;15.74;69.83;101303.56;2070492;28;46609;-63
2023/05/13 02:31:42;;;;;;;;;11.67;11.67;;;;;15.74;69.56;101306.22;2070513;28;46551;-64
2023/05/13 02:32:42;;;;;;;;;12.67;11.33;;;;;15.73;69.85;101298.25;2070541;28;46541;-64
2023/05/13 02:33:43;;;;;;;;;14.33;14.33;;;;;15.75;69.98;101302.66;2070639;28;46541;-65
2023/05/13 02:34:43;;;;;;;;;15.33;14.67;;;;;15.74;69.62;101308.03;2062904;28;46463;-64
2023/05/13 02:35:43;;;;;;;;;14.00;14.00;;;;;15.74;69.85;101302.69;2071205;28;46870;-64
2023/05/13 02:36:44;;;;;;;;;18.67;16.00;;;;;15.74;70.07;101302.69;2071794;28;46521;-65
2023/05/13 02:37:45;;;;;;;;;13.33;13.33;;;;;15.74;69.96;101303.56;2072175;28;46289;-64
2023/05/13 02:38:45;;;;;;;;;15.50;15.50;;;;;15.74;70.15;101300.88;2073035;28;46852;-64
2023/05/13 02:39:46;;;;;;;;;15.00;14.00;;;;;15.74;69.97;101297.31;2073073;28;46873;-64
2023/05/13 02:40:47;;;;;;;;;13.00;12.67;;;;;15.74;69.87;101298.19;2073127;28;46340;-64
2023/05/13 02:41:47;;;;;;;;;15.00;13.75;;;;;15.75;69.93;101291.94;2072678;28;46601;-64
2023/05/13 02:42:47;;;;;;;;;12.67;12.67;;;;;15.75;70.14;101294.63;2073277;28;46544;-64
2023/05/13 02:43:48;;;;;;;;;14.50;14.50;;;;;15.77;69.74;101294.56;2073190;28;46198;-64
2023/05/13 02:44:48;;;;;;;;;16.50;15.50;;;;;15.77;69.94;101292.78;2072527;28;46572;-64
2023/05/13 02:45:48;;;;;;;;;13.50;13.50;;;;;15.78;69.77;101297.19;2073182;28;46534;-63
2023/05/13 02:46:50;;;;;;;;;18.75;16.50;;;;;15.78;70.08;101296.31;2072699;28;46365;-63
2023/05/13 02:47:50;;;;;;;;;14.00;12.75;;;;;15.78;69.80;101293.63;2072759;28;47042;-64
2023/05/13 02:48:51;;;;;;;;;14.00;13.33;;;;;15.78;69.91;101289.16;2072891;28;46449;-64
2023/05/13 02:49:53;;;;;;;;;17.00;15.25;;;;;15.78;69.78;101291.84;2073386;28;46203;-63
2023/05/13 02:50:53;;;;;;;;;21.00;18.75;;;;;15.77;70.17;101295.44;2073107;28;46395;-65
2023/05/13 02:51:54;;;;;;;;;16.00;14.75;;;;;15.77;69.78;101298.13;2073358;28;46617;-64
2023/05/13 02:52:54;;;;;;;;;16.00;13.75;;;;;15.78;69.66;101296.31;2073338;28;46559;-64
2023/05/13 02:53:54;;;;;;;;;17.75;17.00;;;;;15.78;69.97;101290.97;2073549;28;46599;-64
2023/05/13 02:54:55;;;;;;;;;19.75;18.50;;;;;15.77;70.20;101299.94;2073369;28;46502;-63
2023/05/13 02:55:55;;;;;;;;;15.75;13.75;;;;;15.77;69.93;101294.56;2073778;28;46309;-62
2023/05/13 02:56:55;;;;;;;;;17.50;16.00;;;;;15.77;69.92;101306.16;2072270;28;46691;-65
2023/05/13 02:57:56;;;;;;;;;16.33;16.33;;;;;15.75;69.78;101299.97;2072902;28;46398;-64
2023/05/13 02:58:56;;;;;;;;;13.00;12.67;;;;;15.75;70.35;101305.34;2072932;28;46496;-63
2023/05/13 02:59:56;;;;;;;;;17.67;16.33;;;;;15.74;69.90;101300.88;2072848;28;46444;-62
2023/05/13 03:00:57;;;;;;;;;16.00;15.33;;;;;15.73;70.40;101296.44;2073055;28;46384;-64
2023/05/13 03:01:57;;;;;;;;;18.00;17.00;;;;;15.73;70.06;101290.22;2068553;28;46544;-64
2023/05/13 03:02:57;;;;;;;;;15.50;15.00;;;;;15.73;69.95;101295.59;2064715;28;46441;-62
2023/05/13 03:03:58;;;;;;;;;19.25;17.50;;;;;15.72;70.18;101304.53;2072371;28;46906;-64
2023/05/13 03:04:58;;;;;;;;;14.67;14.67;;;;;15.71;70.20;101302.78;2072971;28;46659;-62
2023/05/13 03:05:58;;;;;;;;;14.00;14.00;;;;;15.70;70.07;101304.59;2073079;28;46819;-64
2023/05/13 03:06:59;;;;;;;;;17.33;17.33;;;;;15.70;70.20;101303.72;2063054;28;46534;-63
2023/05/13 03:07:59;;;;;;;;;19.67;19.67;;;;;15.70;70.38;101303.72;2063896;28;46507;-63
2023/05/13 03:09:00;;;;;;;;;17.00;17.00;;;;;15.69;70.07;101304.66;2072889;28;47158;-64
2023/05/13 03:10:00;;;;;;;;;15.00;15.00;;;;;15.68;70.25;101305.56;2072692;28;46958;-64
2023/05/13 03:11:00;;;;;;;;;19.25;18.50;;;;;15.69;70.04;101308.19;2072289;28;45876;-63
2023/05/13 03:12:01;;;;;;;;;20.67;19.67;;;;;15.69;70.23;101308.19;2055994;28;46275;-63
2023/05/13 03:13:01;;;;;;;;;17.00;16.00;;;;;15.70;70.21;101314.41;2064133;28;46366;-64
2023/05/13 03:14:01;;;;;;;;;17.50;16.00;;;;;15.69;70.45;101310.88;2072885;28;45673;-64
2023/05/13 03:15:02;;;;;;;;;21.00;18.25;;;;;15.70;70.02;101306.41;2073139;28;45901;-63
2023/05/13 03:16:03;;;;;;;;;21.40;20.60;;;;;15.69;70.43;101302.84;2072642;28;46078;-63
2023/05/13 03:17:04;;;;;;;;;14.50;14.00;;;;;15.69;70.17;101310.00;2072999;28;46382;-62
2023/05/13 03:18:04;;;;;;;;;19.00;17.33;;;;;15.69;69.98;101310.00;2072765;28;46586;-64
2023/05/13 03:19:05;;;;;;;;;18.00;18.00;;;;;15.69;70.21;101308.19;2072419;28;47474;-64
2023/05/13 03:20:06;;;;;;;;;15.25;15.25;;;;;15.69;70.57;101305.53;2064219;28;46525;-64
2023/05/13 03:21:06;;;;;;;;;19.20;18.40;;;;;15.68;70.35;101305.56;2072531;28;46850;-63
2023/05/13 03:22:06;;;;;;;;;19.00;18.50;;;;;15.68;70.23;101305.56;2064814;28;46370;-63
2023/05/13 03:23:07;;;;;;;;;19.75;17.25;;;;;15.68;70.56;101308.25;2070163;28;46829;-63
2023/05/13 03:24:07;;;;;;;;;18.75;18.75;;;;;15.67;70.12;101306.50;2073837;28;46211;-64
2023/05/13 03:25:08;;;;;;;;;22.00;20.75;;;;;15.66;70.65;101308.31;2073459;28;46207;-63
2023/05/13 03:26:08;;;;;;;;;22.00;21.00;;;;;15.66;70.66;101304.75;2072608;28;45312;-64
2023/05/13 03:27:09;;;;;;;;;20.00;19.50;;;;;15.64;70.75;101302.13;2072510;28;46620;-64
2023/05/13 03:28:09;;;;;;;;;23.50;20.00;;;;;15.64;70.79;101301.25;2071725;28;46636;-64
2023/05/13 03:29:09;;;;;;;;;23.25;23.00;;;;;15.63;70.47;101308.41;2066752;28;46991;-64
2023/05/13 03:30:10;;;;;;;;;26.00;25.00;;;;;15.62;70.63;101301.28;2069586;28;46409;-63
2023/05/13 03:31:11;;;;;;;;;21.00;19.50;;;;;15.63;70.42;101304.88;2072633;28;46608;-62
2023/05/13 03:32:12;;;;;;;;;23.20;21.40;;;;;15.62;70.42;101306.63;2072262;28;46252;-63
2023/05/13 03:33:12;;;;;;;;;26.33;24.67;;;;;15.62;70.56;101314.66;2063309;28;46882;-63
2023/05/13 03:34:12;;;;;;;;;27.25;24.75;;;;;15.62;70.71;101297.75;2063687;28;46664;-64
2023/05/13 03:35:13;;;;;;;;;22.50;21.25;;;;;15.62;70.70;101308.44;2072574;28;46073;-64
2023/05/13 03:36:13;;;;;;;;;25.25;24.00;;;;;15.62;70.51;101305.75;2072730;28;46925;-63
2023/05/13 03:37:13;;;;;;;;;27.00;27.00;;;;;15.60;70.75;101313.84;2072220;28;46598;-63
2023/05/13 03:38:14;;;;;;;;;30.00;28.00;;;;;15.60;71.05;101312.03;2071965;28;46331;-64
2023/05/13 03:39:15;;;;;;;;;21.50;20.50;;;;;15.62;71.02;101313.78;2073281;28;45609;-64
2023/05/13 03:40:15;;;;;;;;;26.00;24.80;;;;;15.60;70.79;101316.53;2072690;28;46568;-63
2023/05/13 03:41:16;;;;;;;;;29.00;26.75;;;;;15.62;70.63;101311.97;2072334;28;45758;-65
2023/05/13 03:42:16;;;;;;;;;28.00;26.00;;;;;15.62;70.78;101309.31;2072044;28;46291;-64
2023/05/13 03:43:17;;;;;;;;;27.75;26.00;;;;;15.62;70.90;101314.66;2070188;28;46291;-63
2023/05/13 03:44:17;;;;;;;;;32.50;29.25;;;;;15.63;70.93;101310.22;2072960;28;46090;-66
2023/05/13 03:45:17;;;;;;;;;32.25;31.00;;;;;15.63;71.03;101310.22;2072694;28;46675;-65
2023/05/13 03:46:18;;;;;;;;;36.25;31.00;;;;;15.63;71.05;101310.22;2072693;28;46118;-63
2023/05/13 03:47:18;;;;;;;;;32.75;30.00;;;;;15.64;71.21;101317.31;2072316;28;46137;-64
2023/05/13 03:48:18;;;;;;;;;31.00;30.00;;;;;15.64;70.98;101311.97;2072155;28;45887;-64
2023/05/13 03:49:19;;;;;;;;;32.25;27.75;;;;;15.65;70.87;101311.03;2054630;28;46906;-63
2023/05/13 03:50:19;;;;;;;;;29.00;26.75;;;;;15.66;71.08;101312.78;2063611;28;46864;-63
2023/05/13 03:51:20;;;;;;;;;34.75;30.25;;;;;15.66;70.86;101310.97;2072493;28;46713;-63
2023/05/13 03:52:20;;;;;;;;;33.80;30.60;;;;;15.68;71.40;101309.13;2072310;28;46731;-64
2023/05/13 03:53:21;;;;;;;;;32.75;30.75;;;;;15.68;70.87;101311.81;2072856;28;46938;-65
2023/05/13 03:54:21;;;;;;;;;34.50;31.25;;;;;15.69;71.28;101312.69;2073132;28;46061;-64
2023/05/13 03:55:22;;;;;;;;;33.25;31.50;;;;;15.69;70.96;101312.69;2072832;28;46448;-63
2023/05/13 03:56:22;;;;;;;;;38.50;33.00;;;;;15.68;71.07;101317.16;2072418;28;46712;-64
2023/05/13 03:57:22;;;;;;;;;33.50;29.25;;;;;15.68;71.13;101321.63;2072368;28;46497;-65
2023/05/13 03:58:22;;;;;;;;;42.75;35.00;;;;;15.68;70.94;101316.28;2072814;28;46219;-64
2023/05/13 03:59:23;;;;;;;;;32.25;27.25;;;;;15.68;71.16;101318.97;2072287;28;46546;-62
2023/05/13 04:00:23;;;;;;;;;39.00;34.00;;;;;15.68;71.38;101322.50;2072660;28;46784;-63
2023/05/13 04:01:23;;;;;;;;;43.50;34.25;;;;;15.66;71.34;101316.34;2072343;28;45869;-65
2023/05/13 04:02:24;;;;;;;;;42.75;35.25;;;;;15.66;71.02;101323.50;2072566;28;46755;-65
2023/05/13 04:03:24;;;;;;;;;39.50;34.00;;;;;15.67;71.41;101325.22;2072294;28;46709;-64
2023/05/13 04:04:24;;;;;;;;;41.50;35.00;;;;;15.66;71.01;101320.81;2072707;28;46257;-64
2023/05/13 04:05:25;;;;;;;;;46.00;37.00;;;;;15.65;71.55;101325.28;2072481;28;46729;-64
2023/05/13 04:06:25;;;;;;;;;42.00;35.50;;;;;15.65;71.42;101325.28;2072927;28;46027;-64
2023/05/13 04:07:25;;;;;;;;;43.25;36.75;;;;;15.64;71.55;101326.22;2071462;28;46681;-65
2023/05/13 04:08:26;;;;;;;;;43.75;37.00;;;;;15.63;71.22;101327.16;2072011;28;46365;-64
2023/05/13 04:09:26;;;;;;;;;36.75;31.75;;;;;15.63;71.62;101332.50;2072732;28;45555;-65
2023/05/13 04:10:27;;;;;;;;;46.50;37.00;;;;;15.63;71.56;101327.16;2072219;28;46751;-65
2023/05/13 04:11:27;;;;;;;;;43.75;36.50;;;;;15.62;71.24;101332.50;2072887;28;45981;-65
2023/05/13 04:12:29;;;;;;;;;43.50;36.50;;;;;15.62;71.32;101337.88;2072255;28;46901;-64
2023/05/13 04:13:33;;;;;;;;;48.00;40.00;;;;;15.62;71.26;101336.06;2071740;28;46240;-65
2023/05/13 04:14:33;;;;;;;;;44.00;37.80;;;;;15.62;71.26;101341.41;2071792;28;46696;-66
2023/05/13 04:15:34;;;;;;;;;49.00;39.00;;;;;15.63;71.60;101340.53;2072249;28;46325;-64
2023/05/13 04:16:34;;;;;;;;;46.00;39.25;;;;;15.64;71.45;101336.03;2072392;28;46483;-65
2023/05/13 04:17:35;;;;;;;;;50.25;40.50;;;;;15.63;71.28;101343.19;2072411;28;46347;-64
2023/05/13 04:18:35;;;;;;;;;44.00;35.75;;;;;15.63;71.79;101345.00;2072324;28;45972;-64
2023/05/13 04:19:35;;;;;;;;;42.50;36.00;;;;;15.64;71.60;101346.75;2071900;28;46589;-65
2023/05/13 04:20:39;;;;;;;;;45.25;38.00;;;;;15.63;71.19;101342.31;2071412;28;47605;-65
2023/05/13 04:21:39;;;;;;;;;44.20;36.40;;;;;15.62;71.30;101345.91;2072609;28;46760;-65
2023/05/13 04:22:40;;;;;;;;;43.75;35.25;;;;;15.60;71.71;101344.16;2071730;28;45799;-63
2023/05/13 04:23:41;;;;;;;;;46.50;38.25;;;;;15.61;71.43;101342.34;2072310;28;45530;-64
2023/05/13 04:24:41;;;;;;;;;47.40;38.80;;;;;15.59;71.51;101341.50;2072678;28;46779;-65
2023/05/13 04:25:42;;;;;;;;;48.25;39.50;;;;;15.59;71.29;101344.16;2072148;28;46474;-66
2023/05/13 04:26:42;;;;;;;;;46.00;38.75;;;;;15.57;71.50;101341.53;2072370;28;46641;-64
2023/05/13 04:27:43;;;;;;;;;46.50;38.00;;;;;15.57;71.62;101348.69;2072364;28;46153;-64
2023/05/13 04:28:43;;;;;;;;;47.25;39.00;;;;;15.56;71.87;101347.81;2067295;28;46893;-65
2023/05/13 04:29:44;;;;;;;;;47.75;39.50;;;;;15.56;71.61;101349.63;2066255;28;46602;-64
2023/05/13 04:30:44;;;;;;;;;53.00;43.00;;;;;15.56;71.21;101347.81;2071795;28;46245;-66
2023/05/13 04:31:45;;;;;;;;;44.50;38.00;;;;;15.55;71.63;101345.19;2071454;28;46913;-64
2023/05/13 04:32:45;;;;;;;;;48.00;38.25;;;;;15.54;71.74;101349.69;2072656;28;46574;-64
2023/05/13 04:33:45;;;;;;;;;47.25;39.50;;;;;15.55;71.50;101354.09;2073008;28;45865;-62
2023/05/13 04:34:47;;;;;;;;;47.75;39.75;;;;;15.54;71.87;101340.78;2072516;28;45695;-64
2023/05/13 04:35:47;;;;;;;;;47.80;39.20;;;;;15.53;71.58;101339.03;2072712;28;46491;-66
2023/05/13 04:36:47;;;;;;;;;51.75;42.25;;;;;15.52;71.54;101342.63;2072657;28;46650;-66
2023/05/13 04:37:48;;;;;;;;;46.00;37.25;;;;;15.52;71.32;101346.19;2072517;28;46767;-65
2023/05/13 04:38:48;;;;;;;;;45.25;38.25;;;;;15.52;71.81;101346.19;2072565;28;46462;-66
2023/05/13 04:39:49;;;;;;;;;48.25;38.00;;;;;15.51;71.84;101348.91;2072404;28;47003;-66
2023/05/13 04:40:51;;;;;;;;;47.50;39.50;;;;;15.51;71.55;101347.09;2072285;28;45683;-65